sensor_id;sensor_type;location;lat;lon;timestamp;P1;durP1;ratioP1;P2;durP2;ratioP2
61617;SDS011;47518;51.776;9.370;2023-02-05T00:01:54;15.10;;;9.77;;
61617;SDS011;47518;51.776;9.370;2023-02-05T00:04:19;14.70;;;9.57;;
61617;SDS011;47518;51.776;9.370;2023-02-05T00:06:45;15.80;;;9.40;;
61617;SDS011;47518;51.776;9.370;2023-02-05T00:09:10;14.27;;;9.00;;
61617;SDS011;47518;51.776;9.370;2023-02-05T00:11:35;13.40;;;9.23;;
61617;SDS011;47518;51.776;9.370;2023-02-05T00:14:01;13.38;;;9.50;;
61617;SDS011;47518;51.776;9.370;2023-02-05T00:16:26;13.88;;;9.15;;
61617;SDS011;47518;51.776;9.370;2023-02-05T00:18:52;15.02;;;9.43;;
61617;SDS011;47518;51.776;9.370;2023-02-05T00:21:22;12.55;;;8.85;;
61617;SDS011;47518;51.776;9.370;2023-02-05T00:23:48;12.55;;;8.50;;
61617;SDS011;47518;51.776;9.370;2023-02-05T00:26:14;14.07;;;9.27;;
61617;SDS011;47518;51.776;9.370;2023-02-05T00:28:40;13.27;;;8.75;;
61617;SDS011;47518;51.776;9.370;2023-02-05T00:31:06;11.73;;;8.20;;
61617;SDS011;47518;51.776;9.370;2023-02-05T00:33:33;8.93;;;6.97;;
61617;SDS011;47518;51.776;9.370;2023-02-05T00:35:58;10.73;;;7.28;;
61617;SDS011;47518;51.776;9.370;2023-02-05T00:38:24;10.25;;;7.20;;
61617;SDS011;47518;51.776;9.370;2023-02-05T00:40:49;9.88;;;7.45;;
61617;SDS011;47518;51.776;9.370;2023-02-05T00:43:14;9.82;;;6.80;;
61617;SDS011;47518;51.776;9.370;2023-02-05T00:45:39;8.48;;;6.78;;
61617;SDS011;47518;51.776;9.370;2023-02-05T00:48:05;9.60;;;7.30;;
61617;SDS011;47518;51.776;9.370;2023-02-05T00:50:31;10.15;;;7.70;;
61617;SDS011;47518;51.776;9.370;2023-02-05T00:52:57;11.00;;;7.63;;
61617;SDS011;47518;51.776;9.370;2023-02-05T00:55:23;9.32;;;7.03;;
61617;SDS011;47518;51.776;9.370;2023-02-05T00:57:48;9.70;;;7.03;;
61617;SDS011;47518;51.776;9.370;2023-02-05T01:00:14;9.98;;;6.60;;
61617;SDS011;47518;51.776;9.370;2023-02-05T01:02:40;9.63;;;6.15;;
61617;SDS011;47518;51.776;9.370;2023-02-05T01:05:06;8.63;;;6.63;;
61617;SDS011;47518;51.776;9.370;2023-02-05T01:07:31;8.18;;;5.85;;
61617;SDS011;47518;51.776;9.370;2023-02-05T01:09:57;6.90;;;5.03;;
61617;SDS011;47518;51.776;9.370;2023-02-05T01:12:22;6.80;;;4.85;;
61617;SDS011;47518;51.776;9.370;2023-02-05T01:14:48;4.32;;;3.90;;
61617;SDS011;47518;51.776;9.370;2023-02-05T01:17:13;4.88;;;3.60;;
61617;SDS011;47518;51.776;9.370;2023-02-05T01:19:39;4.35;;;3.80;;
61617;SDS011;47518;51.776;9.370;2023-02-05T01:22:04;5.32;;;3.80;;
61617;SDS011;47518;51.776;9.370;2023-02-05T01:24:29;4.50;;;3.60;;
61617;SDS011;47518;51.776;9.370;2023-02-05T01:26:55;4.65;;;3.60;;
61617;SDS011;47518;51.776;9.370;2023-02-05T01:29:22;4.45;;;3.65;;
61617;SDS011;47518;51.776;9.370;2023-02-05T01:31:48;4.28;;;3.75;;
61617;SDS011;47518;51.776;9.370;2023-02-05T01:34:14;4.85;;;3.80;;
61617;SDS011;47518;51.776;9.370;2023-02-05T01:36:39;5.18;;;3.50;;
61617;SDS011;47518;51.776;9.370;2023-02-05T01:39:04;5.95;;;3.70;;
61617;SDS011;47518;51.776;9.370;2023-02-05T01:41:30;4.13;;;3.50;;
61617;SDS011;47518;51.776;9.370;2023-02-05T01:44:04;4.35;;;3.40;;
61617;SDS011;47518;51.776;9.370;2023-02-05T01:46:30;4.25;;;3.40;;
61617;SDS011;47518;51.776;9.370;2023-02-05T01:48:56;5.20;;;3.53;;
61617;SDS011;47518;51.776;9.370;2023-02-05T01:51:23;3.95;;;3.55;;
61617;SDS011;47518;51.776;9.370;2023-02-05T01:53:52;3.70;;;3.40;;
61617;SDS011;47518;51.776;9.370;2023-02-05T01:56:20;5.38;;;3.90;;
61617;SDS011;47518;51.776;9.370;2023-02-05T01:58:53;3.67;;;3.30;;
61617;SDS011;47518;51.776;9.370;2023-02-05T02:01:23;3.88;;;3.47;;
61617;SDS011;47518;51.776;9.370;2023-02-05T02:03:48;5.47;;;3.65;;
61617;SDS011;47518;51.776;9.370;2023-02-05T02:06:17;3.72;;;3.35;;
61617;SDS011;47518;51.776;9.370;2023-02-05T02:08:42;4.20;;;3.80;;
61617;SDS011;47518;51.776;9.370;2023-02-05T02:11:08;4.10;;;3.70;;
61617;SDS011;47518;51.776;9.370;2023-02-05T02:13:37;4.18;;;3.72;;
61617;SDS011;47518;51.776;9.370;2023-02-05T02:16:03;3.63;;;3.33;;
61617;SDS011;47518;51.776;9.370;2023-02-05T02:18:30;3.90;;;3.50;;
61617;SDS011;47518;51.776;9.370;2023-02-05T02:21:05;5.57;;;3.78;;
61617;SDS011;47518;51.776;9.370;2023-02-05T02:37:09;4.47;;;3.67;;
61617;SDS011;47518;51.776;9.370;2023-02-05T02:39:40;3.72;;;3.42;;
61617;SDS011;47518;51.776;9.370;2023-02-05T02:45:04;3.72;;;3.40;;
61617;SDS011;47518;51.776;9.370;2023-02-05T02:47:35;3.58;;;3.28;;
61617;SDS011;47518;51.776;9.370;2023-02-05T02:50:06;4.53;;;3.50;;
61617;SDS011;47518;51.776;9.370;2023-02-05T02:52:38;4.03;;;3.40;;
61617;SDS011;47518;51.776;9.370;2023-02-05T02:55:09;4.15;;;3.60;;
61617;SDS011;47518;51.776;9.370;2023-02-05T02:57:37;3.75;;;3.10;;
61617;SDS011;47518;51.776;9.370;2023-02-05T03:00:08;4.88;;;3.47;;
61617;SDS011;47518;51.776;9.370;2023-02-05T03:02:37;4.63;;;3.47;;
61617;SDS011;47518;51.776;9.370;2023-02-05T03:05:06;3.70;;;3.40;;
61617;SDS011;47518;51.776;9.370;2023-02-05T03:07:36;4.32;;;3.30;;
61617;SDS011;47518;51.776;9.370;2023-02-05T03:10:07;5.90;;;3.17;;
61617;SDS011;47518;51.776;9.370;2023-02-05T03:23:14;4.10;;;3.70;;
61617;SDS011;47518;51.776;9.370;2023-02-05T03:25:40;4.10;;;3.60;;
61617;SDS011;47518;51.776;9.370;2023-02-05T03:28:05;4.75;;;3.80;;
61617;SDS011;47518;51.776;9.370;2023-02-05T03:30:34;5.90;;;3.53;;
61617;SDS011;47518;51.776;9.370;2023-02-05T03:33:15;6.85;;;4.13;;
61617;SDS011;47518;51.776;9.370;2023-02-05T03:39:00;4.20;;;3.80;;
61617;SDS011;47518;51.776;9.370;2023-02-05T03:41:37;4.28;;;3.63;;
61617;SDS011;47518;51.776;9.370;2023-02-05T04:00:36;4.97;;;3.95;;
61617;SDS011;47518;51.776;9.370;2023-02-05T04:03:02;3.95;;;3.47;;
61617;SDS011;47518;51.776;9.370;2023-02-05T04:05:28;4.57;;;3.58;;
61617;SDS011;47518;51.776;9.370;2023-02-05T04:07:54;4.18;;;3.70;;
61617;SDS011;47518;51.776;9.370;2023-02-05T04:10:19;3.85;;;3.50;;
61617;SDS011;47518;51.776;9.370;2023-02-05T04:12:44;4.03;;;3.30;;
61617;SDS011;47518;51.776;9.370;2023-02-05T04:15:10;4.28;;;3.40;;
61617;SDS011;47518;51.776;9.370;2023-02-05T04:17:36;4.47;;;3.63;;
61617;SDS011;47518;51.776;9.370;2023-02-05T04:20:02;4.50;;;3.67;;
61617;SDS011;47518;51.776;9.370;2023-02-05T04:22:29;3.90;;;3.50;;
61617;SDS011;47518;51.776;9.370;2023-02-05T04:24:54;4.20;;;3.63;;
61617;SDS011;47518;51.776;9.370;2023-02-05T04:27:19;4.20;;;3.53;;
61617;SDS011;47518;51.776;9.370;2023-02-05T04:29:45;4.03;;;3.42;;
61617;SDS011;47518;51.776;9.370;2023-02-05T04:32:10;4.28;;;3.40;;
61617;SDS011;47518;51.776;9.370;2023-02-05T04:34:35;4.35;;;3.22;;
61617;SDS011;47518;51.776;9.370;2023-02-05T04:37:01;3.47;;;3.17;;
61617;SDS011;47518;51.776;9.370;2023-02-05T04:39:26;4.32;;;3.50;;
61617;SDS011;47518;51.776;9.370;2023-02-05T04:41:51;4.60;;;3.33;;
61617;SDS011;47518;51.776;9.370;2023-02-05T04:44:17;5.05;;;3.40;;
61617;SDS011;47518;51.776;9.370;2023-02-05T04:46:42;3.65;;;3.35;;
61617;SDS011;47518;51.776;9.370;2023-02-05T04:49:07;4.10;;;3.50;;
61617;SDS011;47518;51.776;9.370;2023-02-05T04:51:33;4.88;;;3.50;;
61617;SDS011;47518;51.776;9.370;2023-02-05T04:53:58;3.90;;;3.20;;
61617;SDS011;47518;51.776;9.370;2023-02-05T04:56:24;4.47;;;3.20;;
61617;SDS011;47518;51.776;9.370;2023-02-05T04:58:49;4.60;;;3.50;;
61617;SDS011;47518;51.776;9.370;2023-02-05T05:01:15;6.53;;;3.60;;
61617;SDS011;47518;51.776;9.370;2023-02-05T05:03:43;3.80;;;3.15;;
61617;SDS011;47518;51.776;9.370;2023-02-05T05:06:09;3.55;;;3.25;;
61617;SDS011;47518;51.776;9.370;2023-02-05T05:08:35;4.43;;;3.67;;
61617;SDS011;47518;51.776;9.370;2023-02-05T05:11:04;3.80;;;3.40;;
61617;SDS011;47518;51.776;9.370;2023-02-05T05:13:35;4.07;;;3.65;;
61617;SDS011;47518;51.776;9.370;2023-02-05T05:16:01;3.72;;;3.42;;
61617;SDS011;47518;51.776;9.370;2023-02-05T05:18:27;4.00;;;3.70;;
61617;SDS011;47518;51.776;9.370;2023-02-05T05:20:52;4.45;;;4.03;;
61617;SDS011;47518;51.776;9.370;2023-02-05T05:23:18;4.55;;;3.63;;
61617;SDS011;47518;51.776;9.370;2023-02-05T05:25:44;4.28;;;3.88;;
61617;SDS011;47518;51.776;9.370;2023-02-05T05:28:11;6.88;;;4.25;;
61617;SDS011;47518;51.776;9.370;2023-02-05T05:30:38;7.65;;;3.80;;
61617;SDS011;47518;51.776;9.370;2023-02-05T05:33:05;4.40;;;4.00;;
61617;SDS011;47518;51.776;9.370;2023-02-05T05:35:30;4.10;;;3.70;;
61617;SDS011;47518;51.776;9.370;2023-02-05T05:37:56;4.45;;;4.05;;
61617;SDS011;47518;51.776;9.370;2023-02-05T05:40:22;5.95;;;4.07;;
61617;SDS011;47518;51.776;9.370;2023-02-05T05:43:10;4.75;;;3.50;;
61617;SDS011;47518;51.776;9.370;2023-02-05T05:45:56;4.18;;;3.70;;
61617;SDS011;47518;51.776;9.370;2023-02-05T05:48:21;4.93;;;3.70;;
61617;SDS011;47518;51.776;9.370;2023-02-05T05:50:47;5.28;;;4.22;;
61617;SDS011;47518;51.776;9.370;2023-02-05T05:53:13;4.38;;;3.70;;
61617;SDS011;47518;51.776;9.370;2023-02-05T05:55:38;4.93;;;3.90;;
61617;SDS011;47518;51.776;9.370;2023-02-05T05:58:03;5.15;;;4.45;;
61617;SDS011;47518;51.776;9.370;2023-02-05T06:00:29;5.05;;;4.18;;
61617;SDS011;47518;51.776;9.370;2023-02-05T06:02:54;5.55;;;4.22;;
61617;SDS011;47518;51.776;9.370;2023-02-05T06:05:20;4.90;;;4.25;;
61617;SDS011;47518;51.776;9.370;2023-02-05T06:07:45;5.57;;;4.30;;
61617;SDS011;47518;51.776;9.370;2023-02-05T06:35:18;4.70;;;4.30;;
61617;SDS011;47518;51.776;9.370;2023-02-05T06:37:43;4.80;;;4.40;;
61617;SDS011;47518;51.776;9.370;2023-02-05T06:40:09;4.72;;;4.28;;
61617;SDS011;47518;51.776;9.370;2023-02-05T06:42:35;4.82;;;4.00;;
61617;SDS011;47518;51.776;9.370;2023-02-05T06:45:00;4.72;;;4.10;;
61617;SDS011;47518;51.776;9.370;2023-02-05T06:47:26;4.68;;;3.88;;
61617;SDS011;47518;51.776;9.370;2023-02-05T06:49:51;5.03;;;4.43;;
61617;SDS011;47518;51.776;9.370;2023-02-05T06:52:16;5.03;;;4.20;;
61617;SDS011;47518;51.776;9.370;2023-02-05T06:54:42;6.55;;;4.32;;
61617;SDS011;47518;51.776;9.370;2023-02-05T06:57:08;4.60;;;4.03;;
61617;SDS011;47518;51.776;9.370;2023-02-05T06:59:34;5.07;;;4.25;;
61617;SDS011;47518;51.776;9.370;2023-02-05T07:01:59;6.07;;;4.00;;
61617;SDS011;47518;51.776;9.370;2023-02-05T07:04:25;4.25;;;3.85;;
61617;SDS011;47518;51.776;9.370;2023-02-05T07:06:52;4.47;;;4.05;;
61617;SDS011;47518;51.776;9.370;2023-02-05T07:09:19;5.22;;;4.40;;
61617;SDS011;47518;51.776;9.370;2023-02-05T07:11:44;5.72;;;4.50;;
61617;SDS011;47518;51.776;9.370;2023-02-05T07:14:10;5.40;;;3.90;;
61617;SDS011;47518;51.776;9.370;2023-02-05T07:16:35;5.40;;;4.50;;
61617;SDS011;47518;51.776;9.370;2023-02-05T07:19:00;5.38;;;4.30;;
61617;SDS011;47518;51.776;9.370;2023-02-05T07:21:26;4.53;;;4.05;;
61617;SDS011;47518;51.776;9.370;2023-02-05T07:23:51;7.57;;;4.75;;
61617;SDS011;47518;51.776;9.370;2023-02-05T07:26:16;5.60;;;4.60;;
61617;SDS011;47518;51.776;9.370;2023-02-05T07:28:42;6.15;;;4.60;;
61617;SDS011;47518;51.776;9.370;2023-02-05T07:31:09;5.75;;;4.55;;
61617;SDS011;47518;51.776;9.370;2023-02-05T07:33:39;5.32;;;4.60;;
61617;SDS011;47518;51.776;9.370;2023-02-05T07:36:05;6.40;;;4.78;;
61617;SDS011;47518;51.776;9.370;2023-02-05T07:38:33;5.97;;;4.70;;
61617;SDS011;47518;51.776;9.370;2023-02-05T07:41:03;6.43;;;4.85;;
61617;SDS011;47518;51.776;9.370;2023-02-05T07:43:29;6.65;;;4.88;;
61617;SDS011;47518;51.776;9.370;2023-02-05T07:45:56;5.43;;;4.57;;
61617;SDS011;47518;51.776;9.370;2023-02-05T07:48:24;6.82;;;4.68;;
61617;SDS011;47518;51.776;9.370;2023-02-05T07:50:49;5.60;;;4.68;;
61617;SDS011;47518;51.776;9.370;2023-02-05T07:53:15;5.82;;;4.70;;
61617;SDS011;47518;51.776;9.370;2023-02-05T07:55:40;5.25;;;4.28;;
61617;SDS011;47518;51.776;9.370;2023-02-05T07:58:05;7.18;;;4.70;;
61617;SDS011;47518;51.776;9.370;2023-02-05T08:00:31;6.78;;;4.90;;
61617;SDS011;47518;51.776;9.370;2023-02-05T08:02:56;5.60;;;4.75;;
61617;SDS011;47518;51.776;9.370;2023-02-05T08:05:22;7.15;;;5.00;;
61617;SDS011;47518;51.776;9.370;2023-02-05T08:07:47;6.13;;;4.97;;
61617;SDS011;47518;51.776;9.370;2023-02-05T08:10:13;7.10;;;4.80;;
61617;SDS011;47518;51.776;9.370;2023-02-05T08:12:39;7.68;;;4.85;;
61617;SDS011;47518;51.776;9.370;2023-02-05T08:15:04;9.27;;;5.03;;
61617;SDS011;47518;51.776;9.370;2023-02-05T08:17:30;6.75;;;4.80;;
61617;SDS011;47518;51.776;9.370;2023-02-05T08:19:56;6.55;;;4.93;;
61617;SDS011;47518;51.776;9.370;2023-02-05T08:22:22;6.82;;;5.00;;
61617;SDS011;47518;51.776;9.370;2023-02-05T08:24:47;7.68;;;5.10;;
61617;SDS011;47518;51.776;9.370;2023-02-05T08:27:13;7.00;;;5.10;;
61617;SDS011;47518;51.776;9.370;2023-02-05T08:29:38;6.45;;;5.10;;
61617;SDS011;47518;51.776;9.370;2023-02-05T08:32:03;6.82;;;5.07;;
61617;SDS011;47518;51.776;9.370;2023-02-05T08:34:28;7.70;;;5.43;;
61617;SDS011;47518;51.776;9.370;2023-02-05T08:36:54;7.55;;;5.40;;
61617;SDS011;47518;51.776;9.370;2023-02-05T08:39:21;7.25;;;5.60;;
61617;SDS011;47518;51.776;9.370;2023-02-05T08:41:46;6.18;;;4.85;;
61617;SDS011;47518;51.776;9.370;2023-02-05T08:44:11;7.93;;;5.00;;
61617;SDS011;47518;51.776;9.370;2023-02-05T08:46:37;6.88;;;5.30;;
61617;SDS011;47518;51.776;9.370;2023-02-05T08:49:03;6.70;;;5.13;;
61617;SDS011;47518;51.776;9.370;2023-02-05T08:51:28;7.28;;;5.05;;
61617;SDS011;47518;51.776;9.370;2023-02-05T08:53:54;7.90;;;5.82;;
61617;SDS011;47518;51.776;9.370;2023-02-05T08:56:20;10.15;;;5.43;;
61617;SDS011;47518;51.776;9.370;2023-02-05T08:58:46;8.50;;;5.85;;
61617;SDS011;47518;51.776;9.370;2023-02-05T09:01:12;7.70;;;5.57;;
61617;SDS011;47518;51.776;9.370;2023-02-05T09:03:40;8.45;;;5.60;;
61617;SDS011;47518;51.776;9.370;2023-02-05T09:06:06;7.88;;;5.70;;
61617;SDS011;47518;51.776;9.370;2023-02-05T09:08:33;9.07;;;6.10;;
61617;SDS011;47518;51.776;9.370;2023-02-05T09:10:59;10.63;;;5.70;;
61617;SDS011;47518;51.776;9.370;2023-02-05T09:13:25;8.40;;;5.70;;
61617;SDS011;47518;51.776;9.370;2023-02-05T09:15:50;9.20;;;5.68;;
61617;SDS011;47518;51.776;9.370;2023-02-05T09:18:15;8.82;;;5.43;;
61617;SDS011;47518;51.776;9.370;2023-02-05T09:20:41;10.48;;;6.10;;
61617;SDS011;47518;51.776;9.370;2023-02-05T09:23:08;9.65;;;5.57;;
61617;SDS011;47518;51.776;9.370;2023-02-05T09:25:36;9.05;;;5.75;;
61617;SDS011;47518;51.776;9.370;2023-02-05T09:28:01;9.18;;;5.60;;
61617;SDS011;47518;51.776;9.370;2023-02-05T09:30:27;9.25;;;5.70;;
61617;SDS011;47518;51.776;9.370;2023-02-05T09:32:52;11.52;;;5.80;;
61617;SDS011;47518;51.776;9.370;2023-02-05T09:35:17;6.80;;;5.40;;
61617;SDS011;47518;51.776;9.370;2023-02-05T09:37:43;7.85;;;5.45;;
61617;SDS011;47518;51.776;9.370;2023-02-05T09:40:11;8.27;;;5.65;;
61617;SDS011;47518;51.776;9.370;2023-02-05T09:42:47;8.85;;;5.85;;
61617;SDS011;47518;51.776;9.370;2023-02-05T09:45:27;7.97;;;5.53;;
61617;SDS011;47518;51.776;9.370;2023-02-05T09:48:05;8.15;;;6.00;;
61617;SDS011;47518;51.776;9.370;2023-02-05T09:50:50;9.25;;;5.80;;
61617;SDS011;47518;51.776;9.370;2023-02-05T09:53:17;7.57;;;5.55;;
61617;SDS011;47518;51.776;9.370;2023-02-05T09:55:45;7.68;;;5.57;;
61617;SDS011;47518;51.776;9.370;2023-02-05T09:58:13;8.73;;;5.68;;
61617;SDS011;47518;51.776;9.370;2023-02-05T10:03:21;10.13;;;5.55;;
61617;SDS011;47518;51.776;9.370;2023-02-05T10:05:57;6.30;;;5.05;;
61617;SDS011;47518;51.776;9.370;2023-02-05T10:19:25;9.13;;;5.65;;
61617;SDS011;47518;51.776;9.370;2023-02-05T10:22:08;7.82;;;5.82;;
61617;SDS011;47518;51.776;9.370;2023-02-05T10:24:46;9.85;;;5.60;;
61617;SDS011;47518;51.776;9.370;2023-02-05T10:27:34;8.05;;;5.90;;
61617;SDS011;47518;51.776;9.370;2023-02-05T10:32:55;9.73;;;5.90;;
61617;SDS011;47518;51.776;9.370;2023-02-05T10:48:46;10.95;;;6.72;;
61617;SDS011;47518;51.776;9.370;2023-02-05T10:51:16;12.30;;;6.30;;
61617;SDS011;47518;51.776;9.370;2023-02-05T10:53:48;8.00;;;6.22;;
61617;SDS011;47518;51.776;9.370;2023-02-05T10:56:16;10.07;;;6.43;;
61617;SDS011;47518;51.776;9.370;2023-02-05T10:58:59;9.48;;;6.35;;
61617;SDS011;47518;51.776;9.370;2023-02-05T11:14:35;8.95;;;7.00;;
61617;SDS011;47518;51.776;9.370;2023-02-05T11:20:06;10.13;;;6.80;;
61617;SDS011;47518;51.776;9.370;2023-02-05T11:36:07;12.02;;;6.32;;
61617;SDS011;47518;51.776;9.370;2023-02-05T11:38:42;9.38;;;6.65;;
61617;SDS011;47518;51.776;9.370;2023-02-05T11:41:10;11.15;;;7.00;;
61617;SDS011;47518;51.776;9.370;2023-02-05T11:46:30;10.68;;;7.60;;
61617;SDS011;47518;51.776;9.370;2023-02-05T11:49:01;9.93;;;7.38;;
61617;SDS011;47518;51.776;9.370;2023-02-05T11:51:44;10.32;;;7.55;;
61617;SDS011;47518;51.776;9.370;2023-02-05T12:07:18;10.15;;;6.90;;
61617;SDS011;47518;51.776;9.370;2023-02-05T12:09:45;9.23;;;6.38;;
61617;SDS011;47518;51.776;9.370;2023-02-05T12:15:14;8.70;;;6.13;;
61617;SDS011;47518;51.776;9.370;2023-02-05T12:20:43;8.57;;;6.75;;
61617;SDS011;47518;51.776;9.370;2023-02-05T12:23:26;10.73;;;7.38;;
61617;SDS011;47518;51.776;9.370;2023-02-05T12:32:04;12.00;;;7.28;;
61617;SDS011;47518;51.776;9.370;2023-02-05T12:34:44;8.50;;;7.03;;
61617;SDS011;47518;51.776;9.370;2023-02-05T12:37:31;9.30;;;6.95;;
61617;SDS011;47518;51.776;9.370;2023-02-05T12:53:17;9.73;;;7.30;;
61617;SDS011;47518;51.776;9.370;2023-02-05T12:59:12;13.30;;;7.03;;
61617;SDS011;47518;51.776;9.370;2023-02-05T13:02:00;10.52;;;7.50;;
61617;SDS011;47518;51.776;9.370;2023-02-05T13:04:36;10.23;;;7.00;;
61617;SDS011;47518;51.776;9.370;2023-02-05T13:09:58;9.77;;;7.35;;
61617;SDS011;47518;51.776;9.370;2023-02-05T13:12:27;10.88;;;7.50;;
61617;SDS011;47518;51.776;9.370;2023-02-05T13:31:11;13.90;;;9.57;;
61617;SDS011;47518;51.776;9.370;2023-02-05T13:33:42;11.55;;;8.98;;
61617;SDS011;47518;51.776;9.370;2023-02-05T13:36:16;13.93;;;9.65;;
61617;SDS011;47518;51.776;9.370;2023-02-05T13:39:04;12.95;;;9.45;;
61617;SDS011;47518;51.776;9.370;2023-02-05T13:52:38;11.73;;;8.55;;
61617;SDS011;47518;51.776;9.370;2023-02-05T14:01:18;15.60;;;10.52;;
61617;SDS011;47518;51.776;9.370;2023-02-05T14:04:01;16.10;;;10.98;;
61617;SDS011;47518;51.776;9.370;2023-02-05T14:06:31;17.40;;;10.75;;
61617;SDS011;47518;51.776;9.370;2023-02-05T14:09:03;19.08;;;12.23;;
61617;SDS011;47518;51.776;9.370;2023-02-05T14:14:22;18.70;;;12.27;;
61617;SDS011;47518;51.776;9.370;2023-02-05T14:16:50;20.58;;;13.88;;
61617;SDS011;47518;51.776;9.370;2023-02-05T14:19:17;21.20;;;13.68;;
61617;SDS011;47518;51.776;9.370;2023-02-05T14:21:47;21.00;;;14.05;;
61617;SDS011;47518;51.776;9.370;2023-02-05T14:24:37;22.15;;;14.90;;
61617;SDS011;47518;51.776;9.370;2023-02-05T14:49:29;20.90;;;12.25;;
61617;SDS011;47518;51.776;9.370;2023-02-05T14:52:22;19.40;;;12.05;;
61617;SDS011;47518;51.776;9.370;2023-02-05T15:11:10;13.63;;;10.23;;
61617;SDS011;47518;51.776;9.370;2023-02-05T15:24:20;18.00;;;11.02;;
61617;SDS011;47518;51.776;9.370;2023-02-05T15:26:49;16.10;;;10.55;;
61617;SDS011;47518;51.776;9.370;2023-02-05T15:29:29;18.65;;;11.27;;
61617;SDS011;47518;51.776;9.370;2023-02-05T15:32:00;19.10;;;10.75;;
61617;SDS011;47518;51.776;9.370;2023-02-05T15:34:37;17.95;;;10.80;;
61617;SDS011;47518;51.776;9.370;2023-02-05T15:50:12;19.38;;;10.88;;
61617;SDS011;47518;51.776;9.370;2023-02-05T15:52:38;21.55;;;12.77;;
61617;SDS011;47518;51.776;9.370;2023-02-05T15:55:15;23.25;;;13.43;;
61617;SDS011;47518;51.776;9.370;2023-02-05T15:57:44;17.98;;;11.73;;
61617;SDS011;47518;51.776;9.370;2023-02-05T16:00:16;21.23;;;12.68;;
61617;SDS011;47518;51.776;9.370;2023-02-05T16:03:03;20.10;;;12.50;;
61617;SDS011;47518;51.776;9.370;2023-02-05T16:05:30;19.38;;;12.02;;
61617;SDS011;47518;51.776;9.370;2023-02-05T16:07:56;20.73;;;12.63;;
61617;SDS011;47518;51.776;9.370;2023-02-05T16:10:25;19.55;;;12.55;;
61617;SDS011;47518;51.776;9.370;2023-02-05T16:15:41;20.98;;;12.65;;
61617;SDS011;47518;51.776;9.370;2023-02-05T16:18:30;23.38;;;13.02;;
61617;SDS011;47518;51.776;9.370;2023-02-05T16:24:01;22.20;;;12.27;;
61617;SDS011;47518;51.776;9.370;2023-02-05T16:26:36;22.90;;;13.60;;
61617;SDS011;47518;51.776;9.370;2023-02-05T16:29:05;22.45;;;13.73;;
61617;SDS011;47518;51.776;9.370;2023-02-05T16:31:39;24.02;;;13.60;;
61617;SDS011;47518;51.776;9.370;2023-02-05T16:34:06;25.88;;;13.88;;
61617;SDS011;47518;51.776;9.370;2023-02-05T16:36:42;23.85;;;13.15;;
61617;SDS011;47518;51.776;9.370;2023-02-05T16:39:20;22.88;;;13.68;;
61617;SDS011;47518;51.776;9.370;2023-02-05T16:41:59;21.50;;;13.07;;
61617;SDS011;47518;51.776;9.370;2023-02-05T16:44:43;22.88;;;12.98;;
61617;SDS011;47518;51.776;9.370;2023-02-05T16:49:54;22.45;;;13.27;;
61617;SDS011;47518;51.776;9.370;2023-02-05T16:52:35;23.25;;;13.60;;
61617;SDS011;47518;51.776;9.370;2023-02-05T17:08:24;22.05;;;13.27;;
61617;SDS011;47518;51.776;9.370;2023-02-05T17:10:54;24.13;;;14.32;;
61617;SDS011;47518;51.776;9.370;2023-02-05T17:13:25;26.05;;;14.80;;
61617;SDS011;47518;51.776;9.370;2023-02-05T17:15:52;26.13;;;14.50;;
61617;SDS011;47518;51.776;9.370;2023-02-05T17:21:18;23.20;;;13.60;;
61617;SDS011;47518;51.776;9.370;2023-02-05T17:23:47;24.25;;;14.30;;
61617;SDS011;47518;51.776;9.370;2023-02-05T17:26:13;24.02;;;14.98;;
61617;SDS011;47518;51.776;9.370;2023-02-05T17:28:39;28.92;;;15.18;;
61617;SDS011;47518;51.776;9.370;2023-02-05T17:31:08;26.65;;;14.98;;
61617;SDS011;47518;51.776;9.370;2023-02-05T17:33:33;22.80;;;14.13;;
61617;SDS011;47518;51.776;9.370;2023-02-05T17:35:59;26.73;;;15.27;;
61617;SDS011;47518;51.776;9.370;2023-02-05T17:38:24;25.95;;;15.18;;
61617;SDS011;47518;51.776;9.370;2023-02-05T17:40:49;24.33;;;15.00;;
61617;SDS011;47518;51.776;9.370;2023-02-05T17:43:35;26.70;;;15.73;;
61617;SDS011;47518;51.776;9.370;2023-02-05T17:46:02;28.42;;;15.63;;
61617;SDS011;47518;51.776;9.370;2023-02-05T17:48:28;29.20;;;15.77;;
61617;SDS011;47518;51.776;9.370;2023-02-05T17:50:53;26.83;;;15.40;;
61617;SDS011;47518;51.776;9.370;2023-02-05T17:53:23;27.98;;;15.10;;
61617;SDS011;47518;51.776;9.370;2023-02-05T17:55:48;25.35;;;13.98;;
61617;SDS011;47518;51.776;9.370;2023-02-05T17:58:13;25.85;;;15.40;;
61617;SDS011;47518;51.776;9.370;2023-02-05T18:00:39;27.20;;;15.57;;
61617;SDS011;47518;51.776;9.370;2023-02-05T18:03:04;28.92;;;15.88;;
61617;SDS011;47518;51.776;9.370;2023-02-05T18:05:29;30.48;;;17.92;;
61617;SDS011;47518;51.776;9.370;2023-02-05T18:07:55;26.70;;;15.00;;
61617;SDS011;47518;51.776;9.370;2023-02-05T18:10:23;25.25;;;14.43;;
61617;SDS011;47518;51.776;9.370;2023-02-05T18:12:50;25.70;;;14.98;;
61617;SDS011;47518;51.776;9.370;2023-02-05T18:15:17;23.08;;;14.93;;
61617;SDS011;47518;51.776;9.370;2023-02-05T18:17:43;23.55;;;14.00;;
61617;SDS011;47518;51.776;9.370;2023-02-05T18:20:09;23.33;;;13.70;;
61617;SDS011;47518;51.776;9.370;2023-02-05T18:22:35;22.27;;;13.05;;
61617;SDS011;47518;51.776;9.370;2023-02-05T18:25:01;21.38;;;13.50;;
61617;SDS011;47518;51.776;9.370;2023-02-05T18:27:26;25.17;;;14.82;;
61617;SDS011;47518;51.776;9.370;2023-02-05T18:29:52;29.85;;;15.30;;
61617;SDS011;47518;51.776;9.370;2023-02-05T18:32:19;26.63;;;15.85;;
61617;SDS011;47518;51.776;9.370;2023-02-05T18:34:47;29.52;;;15.95;;
61617;SDS011;47518;51.776;9.370;2023-02-05T18:37:13;27.70;;;15.75;;
61617;SDS011;47518;51.776;9.370;2023-02-05T18:39:40;26.63;;;15.45;;
61617;SDS011;47518;51.776;9.370;2023-02-05T18:42:05;30.50;;;16.75;;
61617;SDS011;47518;51.776;9.370;2023-02-05T18:44:31;26.13;;;15.82;;
61617;SDS011;47518;51.776;9.370;2023-02-05T18:46:56;26.42;;;14.65;;
61617;SDS011;47518;51.776;9.370;2023-02-05T18:49:22;23.70;;;14.73;;
61617;SDS011;47518;51.776;9.370;2023-02-05T18:51:47;26.52;;;14.88;;
61617;SDS011;47518;51.776;9.370;2023-02-05T18:54:13;26.30;;;14.63;;
61617;SDS011;47518;51.776;9.370;2023-02-05T18:56:38;23.77;;;14.75;;
61617;SDS011;47518;51.776;9.370;2023-02-05T18:59:05;25.50;;;15.00;;
61617;SDS011;47518;51.776;9.370;2023-02-05T19:01:33;25.08;;;14.32;;
61617;SDS011;47518;51.776;9.370;2023-02-05T19:04:01;23.40;;;13.73;;
61617;SDS011;47518;51.776;9.370;2023-02-05T19:06:28;24.45;;;14.38;;
61617;SDS011;47518;51.776;9.370;2023-02-05T19:08:56;23.45;;;13.15;;
61617;SDS011;47518;51.776;9.370;2023-02-05T19:11:24;22.40;;;13.70;;
61617;SDS011;47518;51.776;9.370;2023-02-05T19:16:40;25.63;;;13.60;;
61617;SDS011;47518;51.776;9.370;2023-02-05T19:19:06;23.85;;;13.88;;
61617;SDS011;47518;51.776;9.370;2023-02-05T19:21:32;24.58;;;13.27;;
61617;SDS011;47518;51.776;9.370;2023-02-05T19:23:58;20.65;;;12.35;;
61617;SDS011;47518;51.776;9.370;2023-02-05T19:26:29;21.98;;;12.95;;
61617;SDS011;47518;51.776;9.370;2023-02-05T19:28:56;21.63;;;12.57;;
61617;SDS011;47518;51.776;9.370;2023-02-05T19:31:24;23.17;;;13.38;;
61617;SDS011;47518;51.776;9.370;2023-02-05T19:33:51;27.83;;;15.93;;
61617;SDS011;47518;51.776;9.370;2023-02-05T19:36:17;29.50;;;16.35;;
61617;SDS011;47518;51.776;9.370;2023-02-05T19:38:43;34.42;;;17.48;;
61617;SDS011;47518;51.776;9.370;2023-02-05T19:41:10;26.25;;;15.02;;
61617;SDS011;47518;51.776;9.370;2023-02-05T19:43:37;31.38;;;16.02;;
61617;SDS011;47518;51.776;9.370;2023-02-05T19:46:04;27.02;;;14.93;;
61617;SDS011;47518;51.776;9.370;2023-02-05T19:48:31;25.40;;;14.75;;
61617;SDS011;47518;51.776;9.370;2023-02-05T19:51:05;26.50;;;15.63;;